createdAt,value
2022-07-29T00:02:04.476Z,20.60
2022-07-29T00:04:32.350Z,20.59
2022-07-29T00:07:00.168Z,20.59
2022-07-29T00:09:28.375Z,20.59
2022-07-29T00:11:56.215Z,20.59
2022-07-29T00:14:24.061Z,20.58
2022-07-29T00:16:51.956Z,20.59
2022-07-29T00:19:21.313Z,20.59
2022-07-29T00:21:49.160Z,20.58
2022-07-29T00:24:17.435Z,20.58
2022-07-29T00:26:45.564Z,20.58
2022-07-29T00:32:01.613Z,20.58
2022-07-29T00:34:48.467Z,20.59
2022-07-29T00:37:16.422Z,20.59
2022-07-29T00:39:44.274Z,20.59
2022-07-29T00:42:12.234Z,20.59
2022-07-29T00:44:39.987Z,20.58
2022-07-29T00:47:07.909Z,20.59
2022-07-29T00:49:37.326Z,20.58
2022-07-29T00:52:05.189Z,20.58
2022-07-29T00:54:33.134Z,20.58
2022-07-29T00:57:01.104Z,20.58
2022-07-29T00:59:34.858Z,20.57
2022-07-29T01:02:03.233Z,20.57
2022-07-29T01:04:31.861Z,20.57
2022-07-29T01:07:01.003Z,20.57
2022-07-29T01:09:43.138Z,20.57
2022-07-29T01:12:15.167Z,20.58
2022-07-29T01:14:43.496Z,20.57
2022-07-29T01:17:13.019Z,20.57
2022-07-29T01:19:47.707Z,20.56
2022-07-29T01:22:20.965Z,20.56
2022-07-29T01:24:54.787Z,20.57
2022-07-29T01:27:30.553Z,20.56
2022-07-29T01:30:00.227Z,20.58
2022-07-29T01:32:29.499Z,20.57
2022-07-29T01:34:58.287Z,20.57
2022-07-29T01:37:26.748Z,20.55
2022-07-29T01:39:55.053Z,20.56
2022-07-29T01:42:24.816Z,20.56
2022-07-29T01:44:53.392Z,20.56
2022-07-29T01:47:23.385Z,20.55
2022-07-29T01:49:52.190Z,20.56
2022-07-29T01:52:22.078Z,20.55
2022-07-29T01:54:53.527Z,20.56
2022-07-29T01:57:21.605Z,20.55
2022-07-29T01:59:49.463Z,20.55
2022-07-29T02:02:17.613Z,20.55
2022-07-29T02:04:49.447Z,20.56
2022-07-29T02:07:18.146Z,20.55
2022-07-29T02:09:45.995Z,20.55
2022-07-29T02:12:13.831Z,20.55
2022-07-29T02:14:43.843Z,20.56
2022-07-29T02:17:11.687Z,20.56
2022-07-29T02:19:39.649Z,20.55
2022-07-29T02:22:08.937Z,20.55
2022-07-29T02:24:37.135Z,20.53
2022-07-29T02:27:05.099Z,20.56
2022-07-29T02:29:32.942Z,20.56
2022-07-29T02:32:00.910Z,20.56
2022-07-29T02:34:28.761Z,20.55
2022-07-29T02:36:56.721Z,20.55
2022-07-29T02:39:26.492Z,20.55
2022-07-29T02:41:54.574Z,20.56
2022-07-29T02:44:23.145Z,20.55
2022-07-29T02:46:52.238Z,20.55
2022-07-29T02:49:21.367Z,20.55
2022-07-29T02:51:51.586Z,20.54
2022-07-29T02:54:22.561Z,20.55
2022-07-29T02:56:53.757Z,20.55
2022-07-29T02:59:22.444Z,20.55
2022-07-29T03:01:50.442Z,20.55
2022-07-29T03:04:18.590Z,20.53
2022-07-29T03:06:46.688Z,20.55
2022-07-29T03:09:14.778Z,20.53
2022-07-29T03:11:50.351Z,20.55
2022-07-29T03:14:21.429Z,20.53
2022-07-29T03:16:49.471Z,20.53
2022-07-29T03:19:17.325Z,20.55
2022-07-29T03:21:45.164Z,20.54
2022-07-29T03:24:13.094Z,20.53
2022-07-29T03:26:41.082Z,20.55
2022-07-29T03:29:08.935Z,20.53
2022-07-29T03:31:43.735Z,20.53
2022-07-29T03:34:11.812Z,20.53
2022-07-29T03:36:39.665Z,20.52
2022-07-29T03:39:07.989Z,20.52
2022-07-29T03:41:35.840Z,20.52
2022-07-29T03:44:03.675Z,20.53
2022-07-29T03:46:31.695Z,20.52
2022-07-29T03:49:02.351Z,20.53
2022-07-29T03:51:33.255Z,20.53
2022-07-29T03:54:06.392Z,20.52
2022-07-29T03:56:43.189Z,20.53
2022-07-29T03:59:11.145Z,20.53
2022-07-29T04:01:39.068Z,20.53
2022-07-29T04:04:08.521Z,20.53
2022-07-29T04:06:42.358Z,20.52
2022-07-29T04:09:10.574Z,20.52
2022-07-29T04:12:02.688Z,20.51
2022-07-29T04:14:26.555Z,20.52
2022-07-29T04:16:54.861Z,20.52
2022-07-29T04:19:24.148Z,20.52
2022-07-29T04:21:52.469Z,20.52
2022-07-29T04:24:20.643Z,20.52
2022-07-29T04:26:48.783Z,20.52
2022-07-29T04:29:16.604Z,20.52
2022-07-29T04:31:44.894Z,20.51
2022-07-29T04:34:13.118Z,20.51
2022-07-29T04:36:42.652Z,20.51
2022-07-29T04:39:11.214Z,20.51
2022-07-29T04:41:39.306Z,20.51
2022-07-29T04:44:07.544Z,20.52
2022-07-29T04:46:37.114Z,20.52
2022-07-29T04:49:05.278Z,20.50
2022-07-29T04:51:33.196Z,20.50
2022-07-29T04:54:02.379Z,20.51
2022-07-29T04:56:30.208Z,20.51
2022-07-29T04:58:58.173Z,20.51
2022-07-29T05:01:26.095Z,20.50
2022-07-29T05:04:00.136Z,20.50
2022-07-29T05:06:28.427Z,20.50
2022-07-29T05:08:56.390Z,20.50
2022-07-29T05:11:30.250Z,20.51
2022-07-29T05:13:58.451Z,20.50
2022-07-29T05:16:26.563Z,20.50
2022-07-29T05:18:54.491Z,20.50
2022-07-29T05:21:22.456Z,20.52
2022-07-29T05:23:50.305Z,20.50
2022-07-29T05:26:18.269Z,20.51
2022-07-29T05:28:47.423Z,20.50
2022-07-29T05:31:16.031Z,20.50
2022-07-29T05:33:44.071Z,20.50
2022-07-29T05:36:12.781Z,20.51
2022-07-29T05:38:40.734Z,20.50
2022-07-29T05:41:08.806Z,20.50
2022-07-29T05:43:36.773Z,20.51
2022-07-29T05:46:05.966Z,20.50
2022-07-29T05:48:33.778Z,20.50
2022-07-29T05:51:01.744Z,20.51
2022-07-29T05:53:29.609Z,20.49
2022-07-29T05:55:57.674Z,20.50
2022-07-29T05:58:25.519Z,20.50
2022-07-29T06:00:53.864Z,20.49
2022-07-29T06:03:23.132Z,20.50
2022-07-29T06:05:50.973Z,20.49
2022-07-29T06:08:18.814Z,20.50
2022-07-29T06:10:46.781Z,20.49
2022-07-29T06:13:16.946Z,20.50
2022-07-29T06:15:45.052Z,20.49
2022-07-29T06:18:13.078Z,20.50
2022-07-29T06:20:43.440Z,20.49
2022-07-29T06:23:11.291Z,20.49
2022-07-29T06:25:40.445Z,20.49
2022-07-29T06:28:08.302Z,20.50
2022-07-29T06:30:36.215Z,20.50
2022-07-29T06:33:04.104Z,20.50
2022-07-29T06:35:38.750Z,20.50
2022-07-29T06:38:31.337Z,20.49
2022-07-29T06:41:05.059Z,20.49
2022-07-29T06:43:34.893Z,20.49
2022-07-29T06:46:03.076Z,20.49
2022-07-29T06:48:30.888Z,20.49
2022-07-29T06:50:58.741Z,20.50
2022-07-29T06:53:28.632Z,20.49
2022-07-29T06:55:56.587Z,20.50
2022-07-29T06:58:24.426Z,20.50
2022-07-29T07:00:58.485Z,20.49
2022-07-29T07:03:26.847Z,20.49
2022-07-29T07:05:54.926Z,20.49
2022-07-29T07:08:23.128Z,20.49
2022-07-29T07:10:52.414Z,20.49
2022-07-29T07:13:20.259Z,20.51
2022-07-29T07:15:49.434Z,20.49
2022-07-29T07:18:17.265Z,20.50
2022-07-29T07:20:45.465Z,20.49
2022-07-29T07:23:13.431Z,20.50
2022-07-29T07:25:41.285Z,20.49
2022-07-29T07:28:10.809Z,20.49
2022-07-29T07:30:38.892Z,20.51
2022-07-29T07:33:06.868Z,20.50
2022-07-29T07:35:34.697Z,20.49
2022-07-29T07:38:02.675Z,20.50
2022-07-29T07:40:30.513Z,20.49
2022-07-29T07:42:58.358Z,20.50
2022-07-29T07:45:28.035Z,20.50
2022-07-29T07:47:55.846Z,20.50
2022-07-29T07:50:23.807Z,20.48
2022-07-29T07:52:52.138Z,20.50
2022-07-29T07:55:20.108Z,20.50
2022-07-29T07:57:47.939Z,20.50
2022-07-29T08:00:16.027Z,20.49
2022-07-29T08:02:46.231Z,20.49
2022-07-29T08:05:18.006Z,20.49
2022-07-29T08:07:46.990Z,20.49
2022-07-29T08:10:15.073Z,20.49
2022-07-29T08:12:43.885Z,20.49
2022-07-29T08:15:11.731Z,20.50
2022-07-29T08:17:39.570Z,20.49
2022-07-29T08:20:09.340Z,20.49
2022-07-29T08:22:37.180Z,20.50
2022-07-29T08:25:05.387Z,20.50
2022-07-29T08:27:43.420Z,20.49
2022-07-29T08:30:12.241Z,20.50
2022-07-29T08:32:56.198Z,20.49
2022-07-29T08:35:25.806Z,20.49
2022-07-29T08:37:53.771Z,20.49
2022-07-29T08:40:31.965Z,20.49
2022-07-29T08:43:00.772Z,20.50
2022-07-29T08:45:28.749Z,20.49
2022-07-29T08:47:56.786Z,20.50
2022-07-29T08:50:26.073Z,20.50
2022-07-29T08:52:59.401Z,20.50
2022-07-29T08:55:27.646Z,20.50
2022-07-29T08:57:57.372Z,20.49
2022-07-29T09:00:25.617Z,20.50
2022-07-29T09:02:53.693Z,20.50
2022-07-29T09:05:21.538Z,20.50
2022-07-29T09:07:51.060Z,20.48
2022-07-29T09:10:19.130Z,20.49
2022-07-29T09:12:46.990Z,20.49
2022-07-29T09:15:14.952Z,20.50
2022-07-29T09:17:43.808Z,20.49
2022-07-29T09:20:12.093Z,20.50
2022-07-29T09:22:42.004Z,20.49
2022-07-29T09:25:13.053Z,20.50
2022-07-29T09:27:41.019Z,20.49
2022-07-29T09:30:11.513Z,20.50
2022-07-29T09:32:54.226Z,20.49
2022-07-29T09:35:22.435Z,20.50
2022-07-29T09:37:50.272Z,20.50
2022-07-29T09:40:19.802Z,20.50
2022-07-29T09:42:47.773Z,20.50
2022-07-29T09:45:16.205Z,20.50
2022-07-29T09:47:46.096Z,20.50
2022-07-29T09:50:14.061Z,20.51
2022-07-29T09:52:48.750Z,20.50
2022-07-29T09:55:18.278Z,20.50
2022-07-29T09:57:49.111Z,20.49
2022-07-29T10:00:18.631Z,20.51
2022-07-29T10:02:47.082Z,20.50
2022-07-29T10:05:22.373Z,20.50
2022-07-29T10:07:53.921Z,20.51
2022-07-29T10:10:22.971Z,20.51
2022-07-29T10:12:52.749Z,20.51
2022-07-29T10:15:20.825Z,20.50
2022-07-29T10:17:49.148Z,20.51
2022-07-29T10:20:17.421Z,20.51
2022-07-29T10:22:53.917Z,20.51
2022-07-29T10:25:22.043Z,20.51
2022-07-29T10:27:50.011Z,20.51
2022-07-29T10:30:19.415Z,20.50
2022-07-29T10:33:05.258Z,20.51
2022-07-29T10:35:40.063Z,20.51
2022-07-29T10:38:16.655Z,20.51
2022-07-29T10:41:06.656Z,20.51
2022-07-29T10:43:39.127Z,20.51
2022-07-29T10:46:11.679Z,20.51
2022-07-29T10:48:46.707Z,20.51
2022-07-29T10:51:14.646Z,20.51
2022-07-29T10:53:49.369Z,20.50
2022-07-29T10:56:25.607Z,20.51
2022-07-29T10:59:08.215Z,20.51
2022-07-29T11:01:39.226Z,20.51
2022-07-29T11:04:07.231Z,20.51
2022-07-29T11:06:51.031Z,20.51
2022-07-29T11:09:20.272Z,20.51
2022-07-29T11:11:53.486Z,20.50
2022-07-29T11:14:26.383Z,20.52
2022-07-29T11:17:06.510Z,20.52
2022-07-29T11:19:34.856Z,20.51
2022-07-29T11:22:05.636Z,20.51
2022-07-29T11:24:35.120Z,20.51
2022-07-29T11:27:13.447Z,20.51
2022-07-29T11:29:43.122Z,20.51
2022-07-29T11:32:15.742Z,20.52
2022-07-29T11:34:46.407Z,20.52
2022-07-29T11:37:17.959Z,20.51
2022-07-29T11:39:47.495Z,20.51
2022-07-29T11:42:35.401Z,20.52
2022-07-29T11:45:40.317Z,20.53
2022-07-29T11:47:57.091Z,20.51
2022-07-29T11:50:30.118Z,20.53
2022-07-29T11:52:58.081Z,20.52
2022-07-29T11:55:32.585Z,20.51
2022-07-29T11:58:03.781Z,20.52
2022-07-29T12:00:33.255Z,20.51
2022-07-29T12:03:03.405Z,20.52
2022-07-29T12:05:36.281Z,20.52
2022-07-29T12:08:23.221Z,20.52
2022-07-29T12:10:51.754Z,20.53
2022-07-29T12:13:20.439Z,20.53
2022-07-29T12:15:56.019Z,20.52
2022-07-29T12:18:29.449Z,20.52
2022-07-29T12:21:03.251Z,20.52
2022-07-29T12:23:35.034Z,20.52
2022-07-29T12:26:03.303Z,20.52
2022-07-29T12:28:32.220Z,20.53
2022-07-29T12:31:00.304Z,20.53
2022-07-29T12:33:31.390Z,20.53
2022-07-29T12:36:09.426Z,20.52
2022-07-29T12:38:38.482Z,20.53
2022-07-29T12:41:06.324Z,20.52
2022-07-29T12:43:34.177Z,20.52
2022-07-29T12:46:13.466Z,20.53
2022-07-29T12:48:43.370Z,20.52
2022-07-29T12:51:12.769Z,20.53
2022-07-29T12:53:40.785Z,20.52
2022-07-29T12:56:26.611Z,20.53
2022-07-29T12:58:56.882Z,20.53
2022-07-29T13:01:24.799Z,20.53
2022-07-29T13:03:57.077Z,20.53
2022-07-29T13:06:32.295Z,20.52
2022-07-29T13:09:03.736Z,20.53
2022-07-29T13:11:32.081Z,20.53
2022-07-29T13:14:06.498Z,20.53
2022-07-29T13:16:35.124Z,20.53
2022-07-29T13:19:07.961Z,20.54
2022-07-29T13:21:36.055Z,20.53
2022-07-29T13:24:06.523Z,20.54
2022-07-29T13:26:34.375Z,20.54
2022-07-29T13:29:02.212Z,20.53
2022-07-29T13:31:30.175Z,20.53
2022-07-29T13:33:58.497Z,20.55
2022-07-29T13:36:28.030Z,20.53
2022-07-29T13:38:56.118Z,20.53
2022-07-29T13:41:23.953Z,20.55
2022-07-29T13:43:53.959Z,20.55
2022-07-29T13:46:21.826Z,20.54
2022-07-29T13:48:49.925Z,20.53
2022-07-29T13:51:18.336Z,20.55
2022-07-29T13:53:47.496Z,20.53
2022-07-29T13:56:15.458Z,20.53
2022-07-29T13:58:43.312Z,20.53
2022-07-29T14:01:11.201Z,20.54
2022-07-29T14:03:45.688Z,20.55
2022-07-29T14:06:14.405Z,20.54
2022-07-29T14:08:42.242Z,20.53
2022-07-29T14:11:11.408Z,20.55
2022-07-29T14:13:39.256Z,20.55
2022-07-29T14:16:08.065Z,20.55
2022-07-29T14:18:36.022Z,20.55
2022-07-29T14:21:03.864Z,20.55
2022-07-29T14:23:31.716Z,20.55
2022-07-29T14:25:59.677Z,20.53
2022-07-29T14:28:28.841Z,20.54
2022-07-29T14:30:56.689Z,20.55
2022-07-29T14:33:24.535Z,20.55
2022-07-29T14:35:52.507Z,20.55
2022-07-29T14:38:20.332Z,20.55
2022-07-29T14:40:50.926Z,20.54
2022-07-29T14:43:18.787Z,20.55
2022-07-29T14:45:50.775Z,20.55
2022-07-29T14:48:18.685Z,20.55
2022-07-29T14:50:46.636Z,20.55
2022-07-29T14:53:14.605Z,20.56
2022-07-29T14:55:43.044Z,20.55
2022-07-29T14:58:16.001Z,20.55
2022-07-29T15:00:44.411Z,20.55
2022-07-29T15:03:13.726Z,20.56
2022-07-29T15:05:52.784Z,20.55
2022-07-29T15:08:21.370Z,20.56
2022-07-29T15:10:49.557Z,20.55
2022-07-29T15:13:17.396Z,20.55
2022-07-29T15:15:45.492Z,20.55
2022-07-29T15:18:14.646Z,20.56
2022-07-29T15:20:53.288Z,20.55
2022-07-29T15:23:21.987Z,20.56
2022-07-29T15:25:49.943Z,20.55
2022-07-29T15:28:18.410Z,20.56
2022-07-29T15:30:46.602Z,20.56
2022-07-29T15:33:15.877Z,20.55
2022-07-29T15:35:43.720Z,20.56
2022-07-29T15:38:11.560Z,20.56
2022-07-29T15:40:40.024Z,20.55
2022-07-29T15:43:07.729Z,20.55
2022-07-29T15:45:40.398Z,20.56
2022-07-29T15:48:08.468Z,20.56
2022-07-29T15:50:37.982Z,20.56
2022-07-29T15:53:05.954Z,20.56
2022-07-29T15:55:33.793Z,20.56
2022-07-29T15:58:01.758Z,20.55
2022-07-29T16:00:29.605Z,20.57
2022-07-29T16:02:58.644Z,20.56
2022-07-29T16:05:26.737Z,20.56
2022-07-29T16:07:55.902Z,20.56
2022-07-29T16:10:23.750Z,20.56
2022-07-29T16:12:51.706Z,20.56
2022-07-29T16:15:19.574Z,20.56
2022-07-29T16:17:47.519Z,20.57
2022-07-29T16:20:15.476Z,20.56
2022-07-29T16:22:43.332Z,20.56
2022-07-29T16:25:12.615Z,20.56
2022-07-29T16:27:40.575Z,20.56
2022-07-29T16:30:09.840Z,20.57
2022-07-29T16:32:37.721Z,20.56
2022-07-29T16:35:05.906Z,20.57
2022-07-29T16:37:36.651Z,20.56
2022-07-29T16:40:05.485Z,20.57
2022-07-29T16:42:46.691Z,20.56
2022-07-29T16:45:15.170Z,20.57
2022-07-29T16:47:43.252Z,20.56
2022-07-29T16:50:11.849Z,20.57
2022-07-29T16:52:40.045Z,20.57
2022-07-29T16:55:08.582Z,20.57
2022-07-29T16:57:37.870Z,20.57
2022-07-29T17:00:06.315Z,20.57
2022-07-29T17:02:34.173Z,20.57
2022-07-29T17:05:02.742Z,20.57
2022-07-29T17:07:30.686Z,20.56
2022-07-29T17:10:03.295Z,20.57
2022-07-29T17:12:31.777Z,20.56
2022-07-29T17:15:00.947Z,20.57
2022-07-29T17:17:38.863Z,20.57
2022-07-29T17:20:17.507Z,20.57
2022-07-29T17:22:45.598Z,20.57
2022-07-29T17:25:20.716Z,20.58
2022-07-29T17:27:49.577Z,20.57
2022-07-29T17:30:18.849Z,20.57
2022-07-29T17:32:46.701Z,20.57
2022-07-29T17:35:31.829Z,20.58
2022-07-29T17:37:59.656Z,20.57
2022-07-29T17:40:27.513Z,20.57
2022-07-29T17:42:55.469Z,20.58
2022-07-29T17:45:24.761Z,20.57
2022-07-29T17:47:52.725Z,20.58
2022-07-29T17:50:20.574Z,20.58
2022-07-29T17:52:48.889Z,20.59
2022-07-29T17:55:16.732Z,20.58
2022-07-29T17:57:44.695Z,20.58
2022-07-29T18:00:13.621Z,20.58
2022-07-29T18:02:42.798Z,20.58
2022-07-29T18:05:10.645Z,20.58
2022-07-29T18:07:38.600Z,20.58
2022-07-29T18:10:06.920Z,20.58
2022-07-29T18:12:34.761Z,20.58
2022-07-29T18:15:02.610Z,20.58
2022-07-29T18:17:48.464Z,20.58
2022-07-29T18:20:19.661Z,20.58
2022-07-29T18:22:47.621Z,20.58
2022-07-29T18:25:15.586Z,20.59
2022-07-29T18:27:43.446Z,20.59
2022-07-29T18:30:11.783Z,20.59
2022-07-29T18:32:39.603Z,20.58
2022-07-29T18:35:07.682Z,20.58
2022-07-29T18:38:00.261Z,20.58
2022-07-29T18:40:25.932Z,20.57
2022-07-29T18:42:53.778Z,20.58
2022-07-29T18:45:21.748Z,20.58
2022-07-29T18:47:50.190Z,20.58
2022-07-29T18:50:19.488Z,20.58
2022-07-29T18:52:48.638Z,20.59
2022-07-29T18:55:16.482Z,20.58
2022-07-29T18:57:54.504Z,20.58
2022-07-29T19:00:24.918Z,20.59
2022-07-29T19:02:52.959Z,20.59
2022-07-29T19:05:20.953Z,20.59
2022-07-29T19:07:50.346Z,20.57
2022-07-29T19:10:18.436Z,20.59
2022-07-29T19:12:46.270Z,20.58
2022-07-29T19:15:20.093Z,20.57
2022-07-29T19:17:48.746Z,20.58
2022-07-29T19:20:16.764Z,20.59
2022-07-29T19:22:44.616Z,20.58
2022-07-29T19:25:13.793Z,20.59
2022-07-29T19:27:43.172Z,20.59
2022-07-29T19:30:11.382Z,20.58
2022-07-29T19:32:39.346Z,20.58
2022-07-29T19:35:25.673Z,20.59
2022-07-29T19:37:53.513Z,20.58
2022-07-29T19:40:23.043Z,20.59
2022-07-29T19:42:51.791Z,20.58
2022-07-29T19:45:20.049Z,20.58
2022-07-29T19:47:47.908Z,20.59
2022-07-29T19:50:15.746Z,20.59
2022-07-29T19:52:43.703Z,20.58
2022-07-29T19:55:11.553Z,20.58
2022-07-29T19:57:42.001Z,20.58
2022-07-29T20:00:11.395Z,20.59
2022-07-29T20:02:39.470Z,20.58
2022-07-29T20:05:08.036Z,20.59
2022-07-29T20:07:36.044Z,20.59
2022-07-29T20:10:03.895Z,20.58
2022-07-29T20:12:31.737Z,20.58
2022-07-29T20:15:01.145Z,20.60
2022-07-29T20:17:29.253Z,20.58
2022-07-29T20:20:00.092Z,20.59
2022-07-29T20:22:28.037Z,20.59
2022-07-29T20:24:56.146Z,20.59
2022-07-29T20:27:24.211Z,20.59
2022-07-29T20:29:52.051Z,20.59
2022-07-29T20:32:21.696Z,20.59
2022-07-29T20:34:49.544Z,20.58
2022-07-29T20:37:20.623Z,20.59
2022-07-29T20:39:48.705Z,20.58
2022-07-29T20:42:16.565Z,20.58
2022-07-29T20:44:44.395Z,20.58
2022-07-29T20:47:12.481Z,20.59
2022-07-29T20:49:41.884Z,20.59
2022-07-29T20:52:09.736Z,20.59
2022-07-29T20:54:37.696Z,20.59
2022-07-29T20:57:05.536Z,20.59
2022-07-29T20:59:33.624Z,20.59
2022-07-29T21:02:01.463Z,20.59
2022-07-29T21:04:30.743Z,20.59
2022-07-29T21:07:02.233Z,20.58
2022-07-29T21:09:30.397Z,20.59
2022-07-29T21:11:59.451Z,20.59
2022-07-29T21:14:46.851Z,20.58
2022-07-29T21:17:14.936Z,20.58
2022-07-29T21:19:42.902Z,20.58
2022-07-29T21:22:12.670Z,20.59
2022-07-29T21:24:40.625Z,20.58
2022-07-29T21:27:26.040Z,20.60
2022-07-29T21:29:54.200Z,20.60
2022-07-29T21:32:27.692Z,20.59
2022-07-29T21:34:58.300Z,20.59
2022-07-29T21:37:28.175Z,20.59
2022-07-29T21:39:56.015Z,20.59
2022-07-29T21:42:23.983Z,20.60
2022-07-29T21:44:52.303Z,20.59
2022-07-29T21:47:20.272Z,20.60
2022-07-29T21:49:48.246Z,20.59
2022-07-29T21:52:18.145Z,20.58
2022-07-29T21:54:47.411Z,20.59
2022-07-29T21:57:17.646Z,20.58
2022-07-29T21:59:45.505Z,20.59
2022-07-29T22:02:13.455Z,20.59
2022-07-29T22:04:41.462Z,20.59
2022-07-29T22:07:09.265Z,20.58
2022-07-29T22:09:37.234Z,20.58
2022-07-29T22:12:06.998Z,20.58
2022-07-29T22:14:34.960Z,20.58
2022-07-29T22:17:03.212Z,20.58
2022-07-29T22:19:31.364Z,20.59
2022-07-29T22:21:59.332Z,20.59
2022-07-29T22:24:27.178Z,20.59
2022-07-29T22:26:55.139Z,20.59
2022-07-29T22:29:25.298Z,20.58
2022-07-29T22:31:53.237Z,20.59
2022-07-29T22:34:21.192Z,20.59
2022-07-29T22:36:49.052Z,20.59
2022-07-29T22:39:17.003Z,20.58
2022-07-29T22:41:44.843Z,20.59
2022-07-29T22:44:12.693Z,20.58
2022-07-29T22:46:41.858Z,20.59
2022-07-29T22:49:09.866Z,20.58
2022-07-29T22:51:37.671Z,20.59
2022-07-29T22:54:05.513Z,20.58
2022-07-29T22:56:33.363Z,20.59
2022-07-29T22:59:01.204Z,20.58
2022-07-29T23:01:38.029Z,20.58
2022-07-29T23:04:07.760Z,20.59
2022-07-29T23:06:35.772Z,20.58
2022-07-29T23:09:03.625Z,20.58
2022-07-29T23:11:31.940Z,20.58
2022-07-29T23:13:59.801Z,20.58
2022-07-29T23:16:27.935Z,20.58
2022-07-29T23:18:55.956Z,20.58
2022-07-29T23:21:26.204Z,20.58
2022-07-29T23:23:54.047Z,20.58
2022-07-29T23:26:22.011Z,20.58
2022-07-29T23:28:49.856Z,20.57
2022-07-29T23:31:17.895Z,20.57
2022-07-29T23:33:45.804Z,20.58
2022-07-29T23:36:13.745Z,20.57
2022-07-29T23:38:43.029Z,20.57
2022-07-29T23:41:10.883Z,20.58
2022-07-29T23:43:38.726Z,20.58
2022-07-29T23:46:06.721Z,20.58
2022-07-29T23:48:34.769Z,20.58
2022-07-29T23:51:02.613Z,20.57
2022-07-29T23:53:30.460Z,20.57
2022-07-29T23:55:59.749Z,20.58
2022-07-29T23:58:27.700Z,20.57
